sensor_id;sensor_type;location;lat;lon;timestamp;P1;durP1;ratioP1;P2;durP2;ratioP2
50773;SDS011;36745;48.544;8.918;2022-11-20T00:01:33;5.72;;;4.90;;
50773;SDS011;36745;48.544;8.918;2022-11-20T00:04:54;5.97;;;4.57;;
50773;SDS011;36745;48.544;8.918;2022-11-20T00:08:16;13.05;;;7.07;;
50773;SDS011;36745;48.544;8.918;2022-11-20T00:11:37;6.28;;;4.47;;
50773;SDS011;36745;48.544;8.918;2022-11-20T00:14:58;17.25;;;10.18;;
50773;SDS011;36745;48.544;8.918;2022-11-20T00:18:19;22.85;;;14.35;;
50773;SDS011;36745;48.544;8.918;2022-11-20T00:21:40;38.28;;;23.20;;
50773;SDS011;36745;48.544;8.918;2022-11-20T00:25:02;36.95;;;22.33;;
50773;SDS011;36745;48.544;8.918;2022-11-20T00:28:23;12.23;;;6.43;;
50773;SDS011;36745;48.544;8.918;2022-11-20T00:31:44;10.30;;;5.10;;
50773;SDS011;36745;48.544;8.918;2022-11-20T00:35:06;12.32;;;7.50;;
50773;SDS011;36745;48.544;8.918;2022-11-20T00:38:27;15.82;;;9.73;;
50773;SDS011;36745;48.544;8.918;2022-11-20T00:41:48;11.63;;;7.50;;
50773;SDS011;36745;48.544;8.918;2022-11-20T00:45:10;8.85;;;4.93;;
50773;SDS011;36745;48.544;8.918;2022-11-20T00:48:32;9.32;;;4.70;;
50773;SDS011;36745;48.544;8.918;2022-11-20T00:51:53;7.45;;;5.65;;
50773;SDS011;36745;48.544;8.918;2022-11-20T00:55:14;12.82;;;6.85;;
50773;SDS011;36745;48.544;8.918;2022-11-20T00:58:36;6.75;;;4.80;;
50773;SDS011;36745;48.544;8.918;2022-11-20T01:01:59;10.05;;;6.05;;
50773;SDS011;36745;48.544;8.918;2022-11-20T01:05:20;8.80;;;5.10;;
50773;SDS011;36745;48.544;8.918;2022-11-20T01:08:41;9.35;;;6.93;;
50773;SDS011;36745;48.544;8.918;2022-11-20T01:12:04;5.68;;;4.97;;
50773;SDS011;36745;48.544;8.918;2022-11-20T01:15:25;10.05;;;4.88;;
50773;SDS011;36745;48.544;8.918;2022-11-20T01:18:47;7.93;;;6.28;;
50773;SDS011;36745;48.544;8.918;2022-11-20T01:22:10;6.80;;;5.65;;
50773;SDS011;36745;48.544;8.918;2022-11-20T01:25:32;7.30;;;5.68;;
50773;SDS011;36745;48.544;8.918;2022-11-20T01:28:55;5.72;;;4.78;;
50773;SDS011;36745;48.544;8.918;2022-11-20T01:32:17;6.80;;;5.18;;
50773;SDS011;36745;48.544;8.918;2022-11-20T01:35:38;8.75;;;5.45;;
50773;SDS011;36745;48.544;8.918;2022-11-20T01:39:00;8.25;;;5.53;;
50773;SDS011;36745;48.544;8.918;2022-11-20T01:42:24;7.57;;;5.63;;
50773;SDS011;36745;48.544;8.918;2022-11-20T01:46:25;6.90;;;5.18;;
50773;SDS011;36745;48.544;8.918;2022-11-20T01:49:46;6.85;;;5.28;;
50773;SDS011;36745;48.544;8.918;2022-11-20T01:53:14;8.63;;;6.32;;
50773;SDS011;36745;48.544;8.918;2022-11-20T01:56:40;10.45;;;6.68;;
50773;SDS011;36745;48.544;8.918;2022-11-20T02:00:06;6.35;;;5.35;;
50773;SDS011;36745;48.544;8.918;2022-11-20T02:03:30;8.05;;;5.93;;
50773;SDS011;36745;48.544;8.918;2022-11-20T02:06:53;8.07;;;5.82;;
50773;SDS011;36745;48.544;8.918;2022-11-20T02:10:20;7.70;;;6.43;;
50773;SDS011;36745;48.544;8.918;2022-11-20T02:13:41;8.38;;;5.60;;
50773;SDS011;36745;48.544;8.918;2022-11-20T02:17:05;7.90;;;5.57;;
50773;SDS011;36745;48.544;8.918;2022-11-20T02:20:27;7.32;;;5.07;;
50773;SDS011;36745;48.544;8.918;2022-11-20T02:23:53;8.15;;;5.60;;
50773;SDS011;36745;48.544;8.918;2022-11-20T02:27:19;10.23;;;6.40;;
50773;SDS011;36745;48.544;8.918;2022-11-20T02:30:41;8.85;;;6.47;;
50773;SDS011;36745;48.544;8.918;2022-11-20T02:34:02;9.98;;;6.35;;
50773;SDS011;36745;48.544;8.918;2022-11-20T02:37:26;8.63;;;6.35;;
50773;SDS011;36745;48.544;8.918;2022-11-20T02:40:52;10.30;;;6.28;;
50773;SDS011;36745;48.544;8.918;2022-11-20T02:44:14;13.27;;;6.20;;
50773;SDS011;36745;48.544;8.918;2022-11-20T02:47:35;10.70;;;7.13;;
50773;SDS011;36745;48.544;8.918;2022-11-20T02:50:56;9.60;;;7.13;;
50773;SDS011;36745;48.544;8.918;2022-11-20T02:54:18;10.07;;;6.80;;
50773;SDS011;36745;48.544;8.918;2022-11-20T02:57:39;11.90;;;6.55;;
50773;SDS011;36745;48.544;8.918;2022-11-20T03:01:00;9.45;;;6.55;;
50773;SDS011;36745;48.544;8.918;2022-11-20T03:04:21;9.48;;;6.25;;
50773;SDS011;36745;48.544;8.918;2022-11-20T03:07:43;8.95;;;5.90;;
50773;SDS011;36745;48.544;8.918;2022-11-20T03:11:05;11.00;;;6.32;;
50773;SDS011;36745;48.544;8.918;2022-11-20T03:14:27;12.77;;;6.45;;
50773;SDS011;36745;48.544;8.918;2022-11-20T03:17:48;9.38;;;6.07;;
50773;SDS011;36745;48.544;8.918;2022-11-20T03:21:10;8.52;;;6.85;;
50773;SDS011;36745;48.544;8.918;2022-11-20T03:24:32;9.40;;;6.40;;
50773;SDS011;36745;48.544;8.918;2022-11-20T03:27:54;7.13;;;5.95;;
50773;SDS011;36745;48.544;8.918;2022-11-20T03:31:15;7.82;;;6.10;;
50773;SDS011;36745;48.544;8.918;2022-11-20T03:34:38;11.27;;;6.53;;
50773;SDS011;36745;48.544;8.918;2022-11-20T03:37:59;8.88;;;6.25;;
50773;SDS011;36745;48.544;8.918;2022-11-20T03:41:27;10.05;;;7.18;;
50773;SDS011;36745;48.544;8.918;2022-11-20T03:44:50;9.77;;;6.80;;
50773;SDS011;36745;48.544;8.918;2022-11-20T03:48:11;13.02;;;7.43;;
50773;SDS011;36745;48.544;8.918;2022-11-20T03:51:33;10.00;;;7.15;;
50773;SDS011;36745;48.544;8.918;2022-11-20T03:54:56;12.20;;;7.32;;
50773;SDS011;36745;48.544;8.918;2022-11-20T03:58:17;9.75;;;6.72;;
50773;SDS011;36745;48.544;8.918;2022-11-20T04:01:39;11.15;;;6.70;;
50773;SDS011;36745;48.544;8.918;2022-11-20T04:05:00;9.57;;;6.30;;
50773;SDS011;36745;48.544;8.918;2022-11-20T04:08:22;7.85;;;6.40;;
50773;SDS011;36745;48.544;8.918;2022-11-20T04:11:43;10.00;;;6.80;;
50773;SDS011;36745;48.544;8.918;2022-11-20T04:15:04;10.13;;;6.57;;
50773;SDS011;36745;48.544;8.918;2022-11-20T04:18:26;8.55;;;6.32;;
50773;SDS011;36745;48.544;8.918;2022-11-20T04:21:47;9.68;;;6.60;;
50773;SDS011;36745;48.544;8.918;2022-11-20T04:25:08;9.05;;;6.60;;
50773;SDS011;36745;48.544;8.918;2022-11-20T04:28:30;7.65;;;6.07;;
50773;SDS011;36745;48.544;8.918;2022-11-20T04:31:54;10.93;;;6.20;;
50773;SDS011;36745;48.544;8.918;2022-11-20T04:35:15;7.97;;;6.35;;
50773;SDS011;36745;48.544;8.918;2022-11-20T04:38:37;13.35;;;6.70;;
50773;SDS011;36745;48.544;8.918;2022-11-20T04:41:58;16.23;;;10.05;;
50773;SDS011;36745;48.544;8.918;2022-11-20T04:45:39;12.23;;;7.93;;
50773;SDS011;36745;48.544;8.918;2022-11-20T04:49:00;9.05;;;6.50;;
50773;SDS011;36745;48.544;8.918;2022-11-20T04:52:22;9.75;;;6.30;;
50773;SDS011;36745;48.544;8.918;2022-11-20T04:55:43;10.88;;;6.93;;
50773;SDS011;36745;48.544;8.918;2022-11-20T04:59:05;9.57;;;7.10;;
50773;SDS011;36745;48.544;8.918;2022-11-20T05:02:26;8.55;;;6.30;;
50773;SDS011;36745;48.544;8.918;2022-11-20T05:05:48;10.15;;;6.60;;
50773;SDS011;36745;48.544;8.918;2022-11-20T05:09:09;7.78;;;6.00;;
50773;SDS011;36745;48.544;8.918;2022-11-20T05:12:31;9.40;;;5.80;;
50773;SDS011;36745;48.544;8.918;2022-11-20T05:15:52;22.23;;;9.98;;
50773;SDS011;36745;48.544;8.918;2022-11-20T05:19:13;10.23;;;6.00;;
50773;SDS011;36745;48.544;8.918;2022-11-20T05:22:34;8.43;;;5.20;;
50773;SDS011;36745;48.544;8.918;2022-11-20T05:25:56;13.02;;;8.40;;
50773;SDS011;36745;48.544;8.918;2022-11-20T05:29:19;10.00;;;5.55;;
50773;SDS011;36745;48.544;8.918;2022-11-20T05:32:40;6.78;;;4.57;;
50773;SDS011;36745;48.544;8.918;2022-11-20T05:36:02;18.48;;;7.07;;
50773;SDS011;36745;48.544;8.918;2022-11-20T05:39:24;33.67;;;12.55;;
50773;SDS011;36745;48.544;8.918;2022-11-20T05:42:45;16.42;;;7.55;;
50773;SDS011;36745;48.544;8.918;2022-11-20T05:46:07;11.10;;;6.20;;
50773;SDS011;36745;48.544;8.918;2022-11-20T05:49:33;7.15;;;4.88;;
50773;SDS011;36745;48.544;8.918;2022-11-20T05:52:54;7.38;;;4.78;;
50773;SDS011;36745;48.544;8.918;2022-11-20T05:56:19;9.40;;;5.05;;
50773;SDS011;36745;48.544;8.918;2022-11-20T06:03:03;9.50;;;5.28;;
50773;SDS011;36745;48.544;8.918;2022-11-20T06:06:24;6.63;;;4.72;;
50773;SDS011;36745;48.544;8.918;2022-11-20T06:09:46;8.07;;;4.75;;
50773;SDS011;36745;48.544;8.918;2022-11-20T06:13:08;19.42;;;11.23;;
50773;SDS011;36745;48.544;8.918;2022-11-20T06:16:29;15.95;;;9.68;;
50773;SDS011;36745;48.544;8.918;2022-11-20T06:19:50;16.65;;;9.73;;
50773;SDS011;36745;48.544;8.918;2022-11-20T06:23:11;19.70;;;10.32;;
50773;SDS011;36745;48.544;8.918;2022-11-20T06:26:33;13.10;;;9.40;;
50773;SDS011;36745;48.544;8.918;2022-11-20T06:29:54;17.25;;;11.18;;
50773;SDS011;36745;48.544;8.918;2022-11-20T06:33:16;11.30;;;7.25;;
50773;SDS011;36745;48.544;8.918;2022-11-20T06:36:37;9.32;;;6.70;;
50773;SDS011;36745;48.544;8.918;2022-11-20T06:39:58;11.00;;;7.57;;
50773;SDS011;36745;48.544;8.918;2022-11-20T06:43:20;7.50;;;5.65;;
50773;SDS011;36745;48.544;8.918;2022-11-20T06:46:41;7.32;;;6.32;;
50773;SDS011;36745;48.544;8.918;2022-11-20T06:50:02;10.02;;;6.43;;
50773;SDS011;36745;48.544;8.918;2022-11-20T06:53:24;47.95;;;29.10;;
50773;SDS011;36745;48.544;8.918;2022-11-20T06:56:46;93.78;;;51.28;;
50773;SDS011;36745;48.544;8.918;2022-11-20T07:00:08;20.23;;;13.70;;
50773;SDS011;36745;48.544;8.918;2022-11-20T07:03:30;11.50;;;6.85;;
50773;SDS011;36745;48.544;8.918;2022-11-20T07:06:52;9.27;;;7.43;;
50773;SDS011;36745;48.544;8.918;2022-11-20T07:10:13;11.73;;;8.40;;
50773;SDS011;36745;48.544;8.918;2022-11-20T07:13:34;12.90;;;9.23;;
50773;SDS011;36745;48.544;8.918;2022-11-20T07:16:55;9.52;;;7.28;;
50773;SDS011;36745;48.544;8.918;2022-11-20T07:20:17;14.07;;;9.25;;
50773;SDS011;36745;48.544;8.918;2022-11-20T07:23:38;21.58;;;12.35;;
50773;SDS011;36745;48.544;8.918;2022-11-20T07:26:59;11.60;;;7.53;;
50773;SDS011;36745;48.544;8.918;2022-11-20T07:30:20;10.07;;;8.07;;
50773;SDS011;36745;48.544;8.918;2022-11-20T07:33:42;13.48;;;9.90;;
50773;SDS011;36745;48.544;8.918;2022-11-20T07:37:03;13.43;;;9.65;;
50773;SDS011;36745;48.544;8.918;2022-11-20T07:40:24;12.75;;;9.45;;
50773;SDS011;36745;48.544;8.918;2022-11-20T07:43:45;16.85;;;10.90;;
50773;SDS011;36745;48.544;8.918;2022-11-20T07:47:07;14.55;;;9.75;;
50773;SDS011;36745;48.544;8.918;2022-11-20T07:50:28;12.68;;;7.93;;
50773;SDS011;36745;48.544;8.918;2022-11-20T07:53:52;10.50;;;6.60;;
50773;SDS011;36745;48.544;8.918;2022-11-20T07:57:14;9.13;;;5.95;;
50773;SDS011;36745;48.544;8.918;2022-11-20T08:00:35;6.47;;;4.80;;
50773;SDS011;36745;48.544;8.918;2022-11-20T08:03:56;8.27;;;5.32;;
50773;SDS011;36745;48.544;8.918;2022-11-20T08:07:17;5.90;;;4.80;;
50773;SDS011;36745;48.544;8.918;2022-11-20T08:10:39;9.00;;;6.22;;
50773;SDS011;36745;48.544;8.918;2022-11-20T08:14:00;5.55;;;4.70;;
50773;SDS011;36745;48.544;8.918;2022-11-20T08:17:33;7.03;;;3.93;;
50773;SDS011;36745;48.544;8.918;2022-11-20T08:20:54;7.00;;;4.10;;
50773;SDS011;36745;48.544;8.918;2022-11-20T08:24:15;4.35;;;3.20;;
50773;SDS011;36745;48.544;8.918;2022-11-20T08:27:37;6.78;;;4.68;;
50773;SDS011;36745;48.544;8.918;2022-11-20T08:30:59;5.00;;;2.80;;
50773;SDS011;36745;48.544;8.918;2022-11-20T08:34:21;3.05;;;2.55;;
50773;SDS011;36745;48.544;8.918;2022-11-20T08:37:45;3.63;;;3.08;;
50773;SDS011;36745;48.544;8.918;2022-11-20T08:41:07;4.88;;;3.05;;
50773;SDS011;36745;48.544;8.918;2022-11-20T08:44:47;2.58;;;2.38;;
50773;SDS011;36745;48.544;8.918;2022-11-20T08:48:08;6.60;;;3.88;;
50773;SDS011;36745;48.544;8.918;2022-11-20T08:51:29;5.97;;;4.20;;
50773;SDS011;36745;48.544;8.918;2022-11-20T08:54:51;7.85;;;6.15;;
50773;SDS011;36745;48.544;8.918;2022-11-20T08:58:12;14.20;;;9.15;;
50773;SDS011;36745;48.544;8.918;2022-11-20T09:01:34;6.70;;;4.68;;
50773;SDS011;36745;48.544;8.918;2022-11-20T09:04:55;6.53;;;5.07;;
50773;SDS011;36745;48.544;8.918;2022-11-20T09:08:17;5.97;;;4.65;;
50773;SDS011;36745;48.544;8.918;2022-11-20T09:11:38;5.28;;;3.88;;
50773;SDS011;36745;48.544;8.918;2022-11-20T09:14:59;4.10;;;3.70;;
50773;SDS011;36745;48.544;8.918;2022-11-20T09:18:21;3.58;;;2.42;;
50773;SDS011;36745;48.544;8.918;2022-11-20T09:21:42;3.92;;;2.65;;
50773;SDS011;36745;48.544;8.918;2022-11-20T09:25:04;4.10;;;2.22;;
50773;SDS011;36745;48.544;8.918;2022-11-20T09:28:25;2.90;;;1.63;;
50773;SDS011;36745;48.544;8.918;2022-11-20T09:31:47;3.15;;;1.90;;
50773;SDS011;36745;48.544;8.918;2022-11-20T09:35:08;3.67;;;2.17;;
50773;SDS011;36745;48.544;8.918;2022-11-20T09:38:31;2.40;;;1.98;;
50773;SDS011;36745;48.544;8.918;2022-11-20T09:45:30;3.07;;;1.70;;
50773;SDS011;36745;48.544;8.918;2022-11-20T09:53:15;1.85;;;1.70;;
50773;SDS011;36745;48.544;8.918;2022-11-20T09:56:45;5.90;;;2.55;;
50773;SDS011;36745;48.544;8.918;2022-11-20T10:00:19;2.58;;;2.38;;
50773;SDS011;36745;48.544;8.918;2022-11-20T10:07:23;5.40;;;4.00;;
50773;SDS011;36745;48.544;8.918;2022-11-20T10:29:33;4.03;;;2.42;;
50773;SDS011;36745;48.544;8.918;2022-11-20T10:33:04;2.47;;;1.73;;
50773;SDS011;36745;48.544;8.918;2022-11-20T10:36:34;3.83;;;1.58;;
50773;SDS011;36745;48.544;8.918;2022-11-20T10:40:05;2.83;;;1.85;;
50773;SDS011;36745;48.544;8.918;2022-11-20T10:43:41;1.55;;;1.30;;
50773;SDS011;36745;48.544;8.918;2022-11-20T10:47:04;2.50;;;2.00;;
50773;SDS011;36745;48.544;8.918;2022-11-20T10:50:26;2.88;;;2.03;;
50773;SDS011;36745;48.544;8.918;2022-11-20T10:57:41;1.50;;;1.40;;
50773;SDS011;36745;48.544;8.918;2022-11-20T11:01:14;3.70;;;2.28;;
50773;SDS011;36745;48.544;8.918;2022-11-20T11:04:40;3.92;;;2.47;;
50773;SDS011;36745;48.544;8.918;2022-11-20T11:08:12;10.40;;;6.05;;
50773;SDS011;36745;48.544;8.918;2022-11-20T11:11:35;3.03;;;1.27;;
50773;SDS011;36745;48.544;8.918;2022-11-20T11:14:59;2.00;;;1.52;;
50773;SDS011;36745;48.544;8.918;2022-11-20T11:21:49;2.42;;;1.25;;
50773;SDS011;36745;48.544;8.918;2022-11-20T11:25:20;3.13;;;2.20;;
50773;SDS011;36745;48.544;8.918;2022-11-20T11:28:54;2.47;;;1.40;;
50773;SDS011;36745;48.544;8.918;2022-11-20T11:32:23;2.05;;;1.58;;
50773;SDS011;36745;48.544;8.918;2022-11-20T11:35:45;3.95;;;2.58;;
50773;SDS011;36745;48.544;8.918;2022-11-20T11:39:16;1.90;;;1.00;;
50773;SDS011;36745;48.544;8.918;2022-11-20T11:42:44;1.70;;;0.82;;
50773;SDS011;36745;48.544;8.918;2022-11-20T11:46:34;2.08;;;0.70;;
50773;SDS011;36745;48.544;8.918;2022-11-20T11:53:30;3.73;;;0.83;;
50773;SDS011;36745;48.544;8.918;2022-11-20T11:56:53;0.87;;;0.70;;
50773;SDS011;36745;48.544;8.918;2022-11-20T12:00:16;2.17;;;0.63;;
50773;SDS011;36745;48.544;8.918;2022-11-20T12:03:40;2.67;;;1.35;;
50773;SDS011;36745;48.544;8.918;2022-11-20T12:14:58;4.57;;;2.58;;
50773;SDS011;36745;48.544;8.918;2022-11-20T12:18:21;3.63;;;1.20;;
50773;SDS011;36745;48.544;8.918;2022-11-20T12:29:08;2.13;;;1.10;;
50773;SDS011;36745;48.544;8.918;2022-11-20T12:36:45;1.38;;;1.02;;
50773;SDS011;36745;48.544;8.918;2022-11-20T12:44:01;0.90;;;0.68;;
50773;SDS011;36745;48.544;8.918;2022-11-20T12:48:05;1.48;;;0.77;;
50773;SDS011;36745;48.544;8.918;2022-11-20T12:52:06;2.10;;;0.73;;
50773;SDS011;36745;48.544;8.918;2022-11-20T13:03:00;1.85;;;0.95;;
50773;SDS011;36745;48.544;8.918;2022-11-20T13:06:44;2.80;;;1.02;;
50773;SDS011;36745;48.544;8.918;2022-11-20T13:10:06;2.55;;;1.40;;
50773;SDS011;36745;48.544;8.918;2022-11-20T13:17:27;4.82;;;1.35;;
50773;SDS011;36745;48.544;8.918;2022-11-20T13:20:56;3.15;;;1.23;;
50773;SDS011;36745;48.544;8.918;2022-11-20T13:24:22;4.32;;;0.90;;
50773;SDS011;36745;48.544;8.918;2022-11-20T13:27:48;1.63;;;0.98;;
50773;SDS011;36745;48.544;8.918;2022-11-20T13:31:23;3.28;;;0.90;;
50773;SDS011;36745;48.544;8.918;2022-11-20T13:34:55;3.35;;;1.35;;
50773;SDS011;36745;48.544;8.918;2022-11-20T13:38:18;3.88;;;2.22;;
50773;SDS011;36745;48.544;8.918;2022-11-20T13:41:39;3.90;;;1.80;;
50773;SDS011;36745;48.544;8.918;2022-11-20T13:45:02;4.93;;;1.92;;
50773;SDS011;36745;48.544;8.918;2022-11-20T13:48:31;3.60;;;1.70;;
50773;SDS011;36745;48.544;8.918;2022-11-20T13:52:04;4.82;;;1.67;;
50773;SDS011;36745;48.544;8.918;2022-11-20T13:55:38;5.25;;;1.92;;
50773;SDS011;36745;48.544;8.918;2022-11-20T13:59:20;4.00;;;1.90;;
50773;SDS011;36745;48.544;8.918;2022-11-20T14:02:59;20.48;;;10.25;;
50773;SDS011;36745;48.544;8.918;2022-11-20T14:06:34;2.47;;;1.75;;
50773;SDS011;36745;48.544;8.918;2022-11-20T14:10:02;2.92;;;1.60;;
50773;SDS011;36745;48.544;8.918;2022-11-20T14:13:23;3.10;;;1.75;;
50773;SDS011;36745;48.544;8.918;2022-11-20T14:16:45;2.50;;;1.55;;
50773;SDS011;36745;48.544;8.918;2022-11-20T14:20:11;3.80;;;2.10;;
50773;SDS011;36745;48.544;8.918;2022-11-20T14:23:35;5.75;;;2.60;;
50773;SDS011;36745;48.544;8.918;2022-11-20T14:26:56;9.90;;;3.95;;
50773;SDS011;36745;48.544;8.918;2022-11-20T14:30:22;8.23;;;4.85;;
50773;SDS011;36745;48.544;8.918;2022-11-20T14:33:57;14.55;;;6.75;;
50773;SDS011;36745;48.544;8.918;2022-11-20T14:37:23;9.10;;;3.88;;
50773;SDS011;36745;48.544;8.918;2022-11-20T14:40:46;4.93;;;2.95;;
50773;SDS011;36745;48.544;8.918;2022-11-20T14:44:08;9.57;;;4.97;;
50773;SDS011;36745;48.544;8.918;2022-11-20T14:47:30;7.80;;;4.72;;
50773;SDS011;36745;48.544;8.918;2022-11-20T14:50:52;12.90;;;6.60;;
50773;SDS011;36745;48.544;8.918;2022-11-20T14:54:14;6.28;;;4.15;;
50773;SDS011;36745;48.544;8.918;2022-11-20T14:57:36;5.25;;;2.60;;
50773;SDS011;36745;48.544;8.918;2022-11-20T15:01:01;4.70;;;2.22;;
50773;SDS011;36745;48.544;8.918;2022-11-20T15:04:25;2.95;;;2.08;;
50773;SDS011;36745;48.544;8.918;2022-11-20T15:07:48;3.05;;;2.00;;
50773;SDS011;36745;48.544;8.918;2022-11-20T15:11:18;5.07;;;2.30;;
50773;SDS011;36745;48.544;8.918;2022-11-20T15:14:41;2.25;;;1.88;;
50773;SDS011;36745;48.544;8.918;2022-11-20T15:18:03;3.65;;;1.95;;
50773;SDS011;36745;48.544;8.918;2022-11-20T15:21:24;9.35;;;4.68;;
50773;SDS011;36745;48.544;8.918;2022-11-20T15:24:46;3.20;;;1.83;;
50773;SDS011;36745;48.544;8.918;2022-11-20T15:31:50;3.80;;;2.63;;
50773;SDS011;36745;48.544;8.918;2022-11-20T15:35:13;5.43;;;3.10;;
50773;SDS011;36745;48.544;8.918;2022-11-20T15:38:36;4.95;;;2.90;;
50773;SDS011;36745;48.544;8.918;2022-11-20T15:41:57;5.45;;;3.38;;
50773;SDS011;36745;48.544;8.918;2022-11-20T15:45:18;7.18;;;3.70;;
50773;SDS011;36745;48.544;8.918;2022-11-20T15:48:41;6.53;;;4.03;;
50773;SDS011;36745;48.544;8.918;2022-11-20T15:52:04;14.63;;;7.25;;
50773;SDS011;36745;48.544;8.918;2022-11-20T15:55:26;15.15;;;8.27;;
50773;SDS011;36745;48.544;8.918;2022-11-20T15:58:48;13.80;;;7.88;;
50773;SDS011;36745;48.544;8.918;2022-11-20T16:02:13;15.55;;;6.93;;
50773;SDS011;36745;48.544;8.918;2022-11-20T16:05:35;9.98;;;5.50;;
50773;SDS011;36745;48.544;8.918;2022-11-20T16:08:56;10.82;;;5.60;;
50773;SDS011;36745;48.544;8.918;2022-11-20T16:12:17;41.50;;;17.27;;
50773;SDS011;36745;48.544;8.918;2022-11-20T16:15:59;14.75;;;7.05;;
50773;SDS011;36745;48.544;8.918;2022-11-20T16:19:26;18.05;;;8.80;;
50773;SDS011;36745;48.544;8.918;2022-11-20T16:22:47;7.53;;;4.63;;
50773;SDS011;36745;48.544;8.918;2022-11-20T16:26:09;11.82;;;6.07;;
50773;SDS011;36745;48.544;8.918;2022-11-20T16:29:31;7.43;;;4.30;;
50773;SDS011;36745;48.544;8.918;2022-11-20T16:32:52;24.05;;;13.38;;
50773;SDS011;36745;48.544;8.918;2022-11-20T16:36:14;50.92;;;20.73;;
50773;SDS011;36745;48.544;8.918;2022-11-20T16:39:35;31.20;;;15.68;;
50773;SDS011;36745;48.544;8.918;2022-11-20T16:42:57;43.22;;;19.10;;
50773;SDS011;36745;48.544;8.918;2022-11-20T16:46:19;37.22;;;15.82;;
50773;SDS011;36745;48.544;8.918;2022-11-20T16:49:42;49.08;;;21.25;;
50773;SDS011;36745;48.544;8.918;2022-11-20T16:53:03;40.60;;;19.80;;
50773;SDS011;36745;48.544;8.918;2022-11-20T16:56:25;33.50;;;14.77;;
50773;SDS011;36745;48.544;8.918;2022-11-20T16:59:47;21.40;;;9.95;;
50773;SDS011;36745;48.544;8.918;2022-11-20T17:03:08;24.05;;;9.35;;
50773;SDS011;36745;48.544;8.918;2022-11-20T17:06:30;27.25;;;12.70;;
50773;SDS011;36745;48.544;8.918;2022-11-20T17:09:54;21.98;;;8.85;;
50773;SDS011;36745;48.544;8.918;2022-11-20T17:13:15;16.20;;;6.57;;
50773;SDS011;36745;48.544;8.918;2022-11-20T17:16:36;12.98;;;5.05;;
50773;SDS011;36745;48.544;8.918;2022-11-20T17:19:58;8.27;;;4.78;;
50773;SDS011;36745;48.544;8.918;2022-11-20T17:23:19;13.43;;;7.38;;
50773;SDS011;36745;48.544;8.918;2022-11-20T17:26:41;8.95;;;4.88;;
50773;SDS011;36745;48.544;8.918;2022-11-20T17:30:03;9.00;;;5.10;;
50773;SDS011;36745;48.544;8.918;2022-11-20T17:33:24;3.83;;;2.97;;
50773;SDS011;36745;48.544;8.918;2022-11-20T17:36:46;18.40;;;7.22;;
50773;SDS011;36745;48.544;8.918;2022-11-20T17:40:07;5.30;;;3.28;;
50773;SDS011;36745;48.544;8.918;2022-11-20T17:43:28;8.48;;;4.28;;
50773;SDS011;36745;48.544;8.918;2022-11-20T17:46:50;6.13;;;3.53;;
50773;SDS011;36745;48.544;8.918;2022-11-20T17:50:11;3.75;;;2.30;;
50773;SDS011;36745;48.544;8.918;2022-11-20T17:53:33;2.75;;;2.13;;
50773;SDS011;36745;48.544;8.918;2022-11-20T17:56:56;9.02;;;5.20;;
50773;SDS011;36745;48.544;8.918;2022-11-20T18:00:35;11.68;;;7.65;;
50773;SDS011;36745;48.544;8.918;2022-11-20T18:03:57;6.13;;;4.43;;
50773;SDS011;36745;48.544;8.918;2022-11-20T18:07:18;8.77;;;5.18;;
50773;SDS011;36745;48.544;8.918;2022-11-20T18:10:39;19.50;;;12.00;;
50773;SDS011;36745;48.544;8.918;2022-11-20T18:14:01;21.88;;;12.48;;
50773;SDS011;36745;48.544;8.918;2022-11-20T18:17:44;52.93;;;30.97;;
50773;SDS011;36745;48.544;8.918;2022-11-20T18:21:05;33.03;;;20.23;;
50773;SDS011;36745;48.544;8.918;2022-11-20T18:24:26;20.42;;;11.20;;
50773;SDS011;36745;48.544;8.918;2022-11-20T18:27:48;24.52;;;16.48;;
50773;SDS011;36745;48.544;8.918;2022-11-20T18:31:09;12.63;;;7.18;;
50773;SDS011;36745;48.544;8.918;2022-11-20T18:34:31;7.75;;;5.30;;
50773;SDS011;36745;48.544;8.918;2022-11-20T18:37:52;4.80;;;3.80;;
50773;SDS011;36745;48.544;8.918;2022-11-20T18:41:14;4.22;;;2.47;;
50773;SDS011;36745;48.544;8.918;2022-11-20T18:44:59;4.10;;;2.10;;
50773;SDS011;36745;48.544;8.918;2022-11-20T18:48:22;3.80;;;2.08;;
50773;SDS011;36745;48.544;8.918;2022-11-20T18:51:43;2.05;;;1.52;;
50773;SDS011;36745;48.544;8.918;2022-11-20T18:55:04;2.30;;;1.33;;
50773;SDS011;36745;48.544;8.918;2022-11-20T18:58:26;3.00;;;1.50;;
50773;SDS011;36745;48.544;8.918;2022-11-20T19:01:48;1.73;;;1.27;;
50773;SDS011;36745;48.544;8.918;2022-11-20T19:05:10;1.30;;;1.02;;
50773;SDS011;36745;48.544;8.918;2022-11-20T19:08:33;2.97;;;1.08;;
50773;SDS011;36745;48.544;8.918;2022-11-20T19:11:54;5.78;;;2.53;;
50773;SDS011;36745;48.544;8.918;2022-11-20T19:15:15;14.15;;;5.88;;
50773;SDS011;36745;48.544;8.918;2022-11-20T19:18:37;3.15;;;2.22;;
50773;SDS011;36745;48.544;8.918;2022-11-20T19:21:58;4.18;;;3.00;;
50773;SDS011;36745;48.544;8.918;2022-11-20T19:25:19;4.05;;;2.42;;
50773;SDS011;36745;48.544;8.918;2022-11-20T19:28:41;2.15;;;1.13;;
50773;SDS011;36745;48.544;8.918;2022-11-20T19:32:03;1.08;;;0.95;;
50773;SDS011;36745;48.544;8.918;2022-11-20T19:35:24;12.85;;;7.18;;
50773;SDS011;36745;48.544;8.918;2022-11-20T19:38:46;6.22;;;3.53;;
50773;SDS011;36745;48.544;8.918;2022-11-20T19:42:10;4.20;;;2.03;;
50773;SDS011;36745;48.544;8.918;2022-11-20T19:45:31;3.00;;;1.40;;
50773;SDS011;36745;48.544;8.918;2022-11-20T19:48:53;2.40;;;1.67;;
50773;SDS011;36745;48.544;8.918;2022-11-20T19:52:15;5.88;;;2.58;;
50773;SDS011;36745;48.544;8.918;2022-11-20T19:55:36;4.15;;;1.75;;
50773;SDS011;36745;48.544;8.918;2022-11-20T19:58:57;4.68;;;3.30;;
50773;SDS011;36745;48.544;8.918;2022-11-20T20:02:19;5.93;;;2.72;;
50773;SDS011;36745;48.544;8.918;2022-11-20T20:05:40;4.43;;;3.67;;
50773;SDS011;36745;48.544;8.918;2022-11-20T20:09:03;2.20;;;1.33;;
50773;SDS011;36745;48.544;8.918;2022-11-20T20:12:29;3.92;;;3.08;;
50773;SDS011;36745;48.544;8.918;2022-11-20T20:15:50;4.43;;;2.08;;
50773;SDS011;36745;48.544;8.918;2022-11-20T20:19:12;5.55;;;3.72;;
50773;SDS011;36745;48.544;8.918;2022-11-20T20:22:35;1.92;;;1.80;;
50773;SDS011;36745;48.544;8.918;2022-11-20T20:25:57;1.75;;;1.00;;
50773;SDS011;36745;48.544;8.918;2022-11-20T20:29:19;5.20;;;2.10;;
50773;SDS011;36745;48.544;8.918;2022-11-20T20:32:42;2.55;;;1.83;;
50773;SDS011;36745;48.544;8.918;2022-11-20T20:36:04;4.13;;;2.08;;
50773;SDS011;36745;48.544;8.918;2022-11-20T20:39:26;2.00;;;1.50;;
50773;SDS011;36745;48.544;8.918;2022-11-20T20:42:49;2.55;;;1.60;;
50773;SDS011;36745;48.544;8.918;2022-11-20T20:46:10;1.67;;;1.00;;
50773;SDS011;36745;48.544;8.918;2022-11-20T20:49:32;2.80;;;1.00;;
50773;SDS011;36745;48.544;8.918;2022-11-20T20:52:54;1.27;;;0.90;;
50773;SDS011;36745;48.544;8.918;2022-11-20T20:56:18;10.98;;;6.32;;
50773;SDS011;36745;48.544;8.918;2022-11-20T20:59:40;7.78;;;4.85;;
50773;SDS011;36745;48.544;8.918;2022-11-20T21:03:01;6.95;;;3.90;;
50773;SDS011;36745;48.544;8.918;2022-11-20T21:06:22;3.17;;;1.70;;
50773;SDS011;36745;48.544;8.918;2022-11-20T21:09:44;20.58;;;7.63;;
50773;SDS011;36745;48.544;8.918;2022-11-20T21:13:05;2.83;;;1.77;;
50773;SDS011;36745;48.544;8.918;2022-11-20T21:16:27;1.80;;;1.35;;
50773;SDS011;36745;48.544;8.918;2022-11-20T21:20:00;1.30;;;1.00;;
50773;SDS011;36745;48.544;8.918;2022-11-20T21:23:44;1.90;;;1.67;;
50773;SDS011;36745;48.544;8.918;2022-11-20T21:27:07;2.58;;;2.10;;
50773;SDS011;36745;48.544;8.918;2022-11-20T21:30:28;3.55;;;1.40;;
50773;SDS011;36745;48.544;8.918;2022-11-20T21:33:50;4.68;;;1.60;;
50773;SDS011;36745;48.544;8.918;2022-11-20T21:37:13;24.98;;;11.77;;
50773;SDS011;36745;48.544;8.918;2022-11-20T21:40:34;2.90;;;1.30;;
50773;SDS011;36745;48.544;8.918;2022-11-20T21:43:55;3.70;;;1.60;;